MUC | München Airways

 METAR UND TAF INFORMATION

METAR FOR FAOR
ADDS - METARS form results

(0936 UTC 21 May 2019)
Data provider http://aviationweather.gov/metar/data/
 
METAR text: FAOR 210930Z VRB02KT CAVOK 22/02 Q1026 NOSIG
Conditions at: FAOR (JOHANNESBURG/TAM, ZA) observed 0930 UTC 21 May 2019
Temperature: 22.0°C (72°F)
Dewpoint: 2.0°C (36°F) [RH = 27%]
Pressure (altimeter): 30.30 inches Hg (1026.0 mb)
Winds: variable direction winds at 2 MPH (2 knots; 1.0 m/s)
Visibility: 6 or more miles (10+ km)
Ceiling: ceiling and visibility are OK
Clouds: unknown
Weather: no significant weather observed at this time

METAR text: FAOR 210900Z VRB02KT CAVOK 21/03 Q1026 NOSIG
Conditions at: FAOR (JOHANNESBURG/TAM, ZA) observed 0900 UTC 21 May 2019
Temperature: 21.0°C (70°F)
Dewpoint: 3.0°C (37°F) [RH = 30%]
Pressure (altimeter): 30.30 inches Hg (1026.0 mb)
Winds: variable direction winds at 2 MPH (2 knots; 1.0 m/s)
Visibility: 6 or more miles (10+ km)
Ceiling: ceiling and visibility are OK
Clouds: unknown
Weather: no significant weather observed at this time

Forecast for: FAOR (JOHANNESBURG/TAM, ZA)
Text: TAF FAOR 210400Z 2106/2212 23007KT CAVOK TX22/2113Z TN11/2205Z
Forecast period: 0600 UTC 21 May 2019 to 1200 UTC 22 May 2019
Forecast type: FROM: standard forecast or significant change
Winds: from the SW (230 degrees) at 8 MPH (7 knots; 3.6 m/s)
Visibility: 6 or more miles 10+ km)
Ceiling: unknown
Clouds: missing
Weather: no significant weather forecast for this period

 FLUGHAFENKARTE

 RUNWAY INFORMATION

 AIRPORT FREQUENCIES

 AIRPORT NEAR NAVIGATION AIDS